createdAt,value
2018-12-02T00:00:34.926Z,0
2018-12-02T00:01:15.376Z,0
2018-12-02T00:01:55.908Z,0
2018-12-02T00:02:36.196Z,0
2018-12-02T00:03:16.537Z,0
2018-12-02T00:03:56.954Z,0
2018-12-02T00:04:37.408Z,0
2018-12-02T00:05:17.761Z,0
2018-12-02T00:05:58.145Z,0
2018-12-02T00:06:38.521Z,0
2018-12-02T00:07:18.973Z,0
2018-12-02T00:07:59.329Z,0
2018-12-02T00:08:39.725Z,0
2018-12-02T00:09:20.143Z,0
2018-12-02T00:10:00.560Z,0
2018-12-02T00:10:40.960Z,0
2018-12-02T00:11:21.273Z,0
2018-12-02T00:12:01.740Z,0
2018-12-02T00:12:42.175Z,0
2018-12-02T00:13:22.525Z,0
2018-12-02T00:14:02.917Z,0
2018-12-02T00:14:43.308Z,0
2018-12-02T00:15:24.414Z,0
2018-12-02T00:16:04.230Z,0
2018-12-02T00:16:44.634Z,0
2018-12-02T00:17:25.036Z,0
2018-12-02T00:18:05.450Z,0
2018-12-02T00:18:45.842Z,0
2018-12-02T00:19:26.254Z,0
2018-12-02T00:20:06.654Z,0
2018-12-02T00:20:47.866Z,0
2018-12-02T00:21:28.292Z,0
2018-12-02T00:22:10.249Z,0
2018-12-02T00:22:50.707Z,0
2018-12-02T00:23:31.017Z,0
2018-12-02T00:24:11.409Z,0
2018-12-02T00:24:51.763Z,0
2018-12-02T00:25:32.181Z,0
2018-12-02T00:26:12.637Z,0
2018-12-02T00:26:52.918Z,0
2018-12-02T00:27:33.406Z,0
2018-12-02T00:28:13.852Z,0
2018-12-02T00:28:54.247Z,0
2018-12-02T00:29:34.604Z,0
2018-12-02T00:30:15.036Z,0
2018-12-02T00:30:55.409Z,0
2018-12-02T00:31:35.840Z,0
2018-12-02T00:32:16.304Z,0
2018-12-02T00:32:56.654Z,0
2018-12-02T00:33:37.007Z,0
2018-12-02T00:34:17.435Z,0
2018-12-02T00:34:57.796Z,0
2018-12-02T00:35:38.215Z,0
2018-12-02T00:36:18.738Z,0
2018-12-02T00:36:59.047Z,0
2018-12-02T00:37:39.609Z,0
2018-12-02T00:38:20.012Z,0
2018-12-02T00:39:00.448Z,0
2018-12-02T00:39:40.906Z,0
2018-12-02T00:40:21.239Z,0
2018-12-02T00:41:01.658Z,0
2018-12-02T00:41:42.074Z,0
2018-12-02T00:42:22.438Z,0
2018-12-02T00:43:02.810Z,0
2018-12-02T00:43:43.206Z,0
2018-12-02T00:44:23.690Z,0
2018-12-02T00:45:04.031Z,0
2018-12-02T00:45:44.360Z,0
2018-12-02T00:46:24.765Z,0
2018-12-02T00:47:05.132Z,0
2018-12-02T00:47:45.595Z,0
2018-12-02T00:48:25.961Z,0
2018-12-02T00:49:06.346Z,0
2018-12-02T00:49:46.719Z,0
2018-12-02T00:50:27.223Z,0
2018-12-02T00:51:07.615Z,0
2018-12-02T00:51:47.942Z,0
2018-12-02T00:52:28.412Z,0
2018-12-02T00:53:09.344Z,0
2018-12-02T00:53:49.750Z,0
2018-12-02T00:54:30.155Z,0
2018-12-02T00:55:10.539Z,0
2018-12-02T00:55:50.991Z,0
2018-12-02T00:56:33.279Z,0
2018-12-02T00:57:13.920Z,0
2018-12-02T00:57:54.289Z,0
2018-12-02T00:58:34.687Z,0
2018-12-02T00:59:15.127Z,0
2018-12-02T00:59:55.522Z,0
2018-12-02T01:00:35.842Z,0
2018-12-02T01:01:18.133Z,0
2018-12-02T01:01:58.792Z,0
2018-12-02T01:02:39.218Z,0
2018-12-02T01:03:19.590Z,0
2018-12-02T01:03:59.948Z,0
2018-12-02T01:04:40.386Z,0
2018-12-02T01:05:20.741Z,0
2018-12-02T01:06:01.194Z,0
2018-12-02T01:06:41.604Z,0
2018-12-02T01:07:21.960Z,0
2018-12-02T01:08:02.381Z,0
2018-12-02T01:08:42.766Z,0
2018-12-02T01:09:23.155Z,0
2018-12-02T01:10:03.586Z,0
2018-12-02T01:10:43.957Z,0
2018-12-02T01:11:24.345Z,0
2018-12-02T01:12:04.767Z,0
2018-12-02T01:12:45.157Z,0
2018-12-02T01:13:26.033Z,0
2018-12-02T01:14:06.481Z,0
2018-12-02T01:14:46.923Z,0
2018-12-02T01:15:27.263Z,0
2018-12-02T01:16:07.649Z,0
2018-12-02T01:16:48.139Z,0
2018-12-02T01:17:28.537Z,0
2018-12-02T01:18:08.905Z,0
2018-12-02T01:18:50.158Z,0
2018-12-02T01:19:30.529Z,0
2018-12-02T01:20:10.911Z,0
2018-12-02T01:20:52.844Z,0
2018-12-02T01:21:33.308Z,0
2018-12-02T01:22:13.921Z,0
2018-12-02T01:22:54.304Z,0
2018-12-02T01:23:34.632Z,0
2018-12-02T01:24:15.067Z,0
2018-12-02T01:24:55.433Z,0
2018-12-02T01:25:35.787Z,0
2018-12-02T01:26:16.324Z,0
2018-12-02T01:26:56.708Z,0
2018-12-02T01:27:37.206Z,0
2018-12-02T01:28:17.601Z,0
2018-12-02T01:28:57.927Z,0
2018-12-02T01:29:38.287Z,0
2018-12-02T01:30:18.783Z,0
2018-12-02T01:30:59.102Z,0
2018-12-02T01:31:39.458Z,0
2018-12-02T01:32:19.882Z,0
2018-12-02T01:33:01.254Z,0
2018-12-02T01:33:41.630Z,0
2018-12-02T01:34:22.061Z,0
2018-12-02T01:35:02.417Z,0
2018-12-02T01:35:42.860Z,0
2018-12-02T01:36:23.247Z,0
2018-12-02T01:37:03.695Z,0
2018-12-02T01:37:44.067Z,0
2018-12-02T01:38:24.491Z,0
2018-12-02T01:39:04.850Z,0
2018-12-02T01:39:45.254Z,0
2018-12-02T01:40:25.680Z,0
2018-12-02T01:41:06.098Z,0
2018-12-02T01:41:47.273Z,0
2018-12-02T01:42:27.658Z,0
2018-12-02T01:43:08.063Z,0
2018-12-02T01:43:48.477Z,0
2018-12-02T01:44:28.890Z,0
2018-12-02T01:45:09.281Z,0
2018-12-02T01:45:49.687Z,0
2018-12-02T01:46:30.042Z,0
2018-12-02T01:47:10.400Z,0
2018-12-02T01:47:50.817Z,0
2018-12-02T01:48:31.203Z,0
2018-12-02T01:49:11.609Z,0
2018-12-02T01:49:52.000Z,0
2018-12-02T01:50:32.341Z,0
2018-12-02T01:51:12.768Z,0
2018-12-02T01:51:53.141Z,0
2018-12-02T01:52:33.515Z,0
2018-12-02T01:53:14.005Z,0
2018-12-02T01:53:54.358Z,0
2018-12-02T01:54:34.681Z,0
2018-12-02T01:55:15.082Z,0
2018-12-02T01:55:55.547Z,0
2018-12-02T01:56:35.917Z,0
2018-12-02T01:57:16.323Z,0
2018-12-02T01:57:56.775Z,0
2018-12-02T01:58:37.131Z,0
2018-12-02T01:59:17.532Z,0
2018-12-02T01:59:57.940Z,0
2018-12-02T02:00:38.305Z,0
2018-12-02T02:01:18.626Z,0
2018-12-02T02:01:59.138Z,0
2018-12-02T02:02:39.435Z,0
2018-12-02T02:03:19.834Z,0
2018-12-02T02:04:00.249Z,0
2018-12-02T02:04:40.599Z,0
2018-12-02T02:05:21.087Z,0
2018-12-02T02:06:01.413Z,0
2018-12-02T02:06:41.823Z,0
2018-12-02T02:07:22.258Z,0
2018-12-02T02:08:02.679Z,0
2018-12-02T02:08:43.079Z,0
2018-12-02T02:09:23.469Z,0
2018-12-02T02:10:03.944Z,0
2018-12-02T02:10:44.266Z,0
2018-12-02T02:11:24.595Z,0
2018-12-02T02:12:04.993Z,0
2018-12-02T02:12:45.491Z,0
2018-12-02T02:13:25.858Z,0
2018-12-02T02:14:06.281Z,0
2018-12-02T02:14:46.621Z,0
2018-12-02T02:15:27.139Z,0
2018-12-02T02:16:07.499Z,0
2018-12-02T02:16:47.823Z,0
2018-12-02T02:17:28.350Z,0
2018-12-02T02:18:08.641Z,0
2018-12-02T02:18:49.060Z,0
2018-12-02T02:19:29.425Z,0
2018-12-02T02:20:09.875Z,0
2018-12-02T02:20:50.158Z,0
2018-12-02T02:21:30.557Z,0
2018-12-02T02:22:10.955Z,0
2018-12-02T02:22:51.335Z,0
2018-12-02T02:23:31.808Z,0
2018-12-02T02:24:12.101Z,0
2018-12-02T02:24:52.514Z,0
2018-12-02T02:25:32.904Z,0
2018-12-02T02:26:13.311Z,0
2018-12-02T02:26:53.688Z,0
2018-12-02T02:27:34.070Z,0
2018-12-02T02:28:14.436Z,0
2018-12-02T02:28:54.818Z,0
2018-12-02T02:29:35.267Z,0
2018-12-02T02:30:15.617Z,0
2018-12-02T02:30:55.977Z,0
2018-12-02T02:31:36.487Z,0
2018-12-02T02:32:16.838Z,0
2018-12-02T02:32:57.230Z,0
2018-12-02T02:33:37.599Z,0
2018-12-02T02:34:18.217Z,0
2018-12-02T02:34:58.530Z,0
2018-12-02T02:35:39.645Z,0
2018-12-02T02:36:20.303Z,0
2018-12-02T02:37:00.833Z,0
2018-12-02T02:37:41.098Z,0
2018-12-02T02:38:22.414Z,0
2018-12-02T02:39:02.833Z,0
2018-12-02T02:39:43.358Z,0
2018-12-02T02:40:23.775Z,0
2018-12-02T02:41:04.246Z,0
2018-12-02T02:41:44.580Z,0
2018-12-02T02:42:24.972Z,0
2018-12-02T02:43:05.299Z,0
2018-12-02T02:43:45.734Z,0
2018-12-02T02:44:31.130Z,0
2018-12-02T02:45:11.426Z,0
2018-12-02T02:45:51.854Z,0
2018-12-02T02:46:32.435Z,0
2018-12-02T02:47:12.762Z,0
2018-12-02T02:47:53.131Z,0
2018-12-02T02:48:33.828Z,0
2018-12-02T02:49:14.896Z,0
2018-12-02T02:49:55.791Z,0
2018-12-02T02:50:36.337Z,0
2018-12-02T02:51:16.890Z,0
2018-12-02T02:51:57.469Z,0
2018-12-02T02:52:38.118Z,0
2018-12-02T02:53:19.157Z,0
2018-12-02T02:53:59.652Z,0
2018-12-02T02:54:40.626Z,0
2018-12-02T02:55:21.793Z,0
2018-12-02T02:56:02.917Z,0
2018-12-02T02:56:46.453Z,0
2018-12-02T02:57:27.645Z,0
2018-12-02T02:58:08.886Z,0
2018-12-02T02:58:50.749Z,0
2018-12-02T02:59:34.936Z,0
2018-12-02T03:00:16.735Z,0
2018-12-02T03:00:57.498Z,0
2018-12-02T03:01:40.989Z,0
2018-12-02T03:02:25.228Z,0
2018-12-02T03:03:05.612Z,0
2018-12-02T03:03:50.106Z,0
2018-12-02T03:04:32.210Z,0
2018-12-02T03:05:15.010Z,0
2018-12-02T03:06:07.198Z,0
2018-12-02T03:08:53.805Z,0
2018-12-02T03:09:34.201Z,0
2018-12-02T03:12:37.925Z,0
2018-12-02T03:13:18.265Z,0
2018-12-02T03:13:58.672Z,0
2018-12-02T03:14:39.048Z,0
2018-12-02T03:15:19.480Z,0
2018-12-02T03:15:59.932Z,0
2018-12-02T03:16:40.278Z,0
2018-12-02T03:17:20.764Z,0
2018-12-02T03:18:01.155Z,0
2018-12-02T03:18:41.635Z,0
2018-12-02T03:19:22.058Z,0
2018-12-02T03:20:02.528Z,0
2018-12-02T03:20:42.844Z,0
2018-12-02T03:21:23.468Z,0
2018-12-02T03:22:03.776Z,0
2018-12-02T03:22:44.181Z,0
2018-12-02T03:23:24.654Z,0
2018-12-02T03:24:04.923Z,0
2018-12-02T03:24:45.381Z,0
2018-12-02T03:25:25.734Z,0
2018-12-02T03:26:06.125Z,0
2018-12-02T03:26:46.538Z,0
2018-12-02T03:27:27.080Z,0
2018-12-02T03:28:07.497Z,0
2018-12-02T03:28:47.911Z,0
2018-12-02T03:29:28.259Z,0
2018-12-02T03:31:27.232Z,0
2018-12-02T03:32:07.292Z,0
2018-12-02T03:32:47.699Z,0
2018-12-02T03:33:28.123Z,0
2018-12-02T03:34:08.580Z,0
2018-12-02T03:34:49.278Z,0
2018-12-02T03:35:29.732Z,0
2018-12-02T03:37:45.582Z,0
2018-12-02T03:38:26.114Z,0
2018-12-02T03:39:06.515Z,0
2018-12-02T03:39:47.143Z,0
2018-12-02T03:40:27.352Z,0
2018-12-02T03:41:07.768Z,0
2018-12-02T03:41:48.145Z,0
2018-12-02T03:42:28.554Z,0
2018-12-02T03:43:08.992Z,0
2018-12-02T03:43:49.454Z,0
2018-12-02T03:44:29.889Z,0
2018-12-02T03:45:10.320Z,0
2018-12-02T03:45:50.723Z,0
2018-12-02T03:46:31.083Z,0
2018-12-02T03:47:11.693Z,0
2018-12-02T03:47:51.983Z,0
2018-12-02T03:48:32.310Z,0
2018-12-02T03:49:12.706Z,0
2018-12-02T03:49:53.323Z,0
2018-12-02T03:52:06.870Z,0
2018-12-02T03:52:47.058Z,0
2018-12-02T03:53:27.423Z,0
2018-12-02T03:55:48.269Z,0
2018-12-02T03:56:28.905Z,0
2018-12-02T03:57:09.383Z,0
2018-12-02T03:57:49.759Z,0
2018-12-02T03:58:30.129Z,0
2018-12-02T03:59:10.659Z,0
2018-12-02T03:59:50.998Z,0
2018-12-02T04:00:31.639Z,0
2018-12-02T04:01:12.038Z,0
2018-12-02T04:01:52.413Z,0
2018-12-02T04:02:32.975Z,0
2018-12-02T04:03:13.279Z,0
2018-12-02T04:03:53.701Z,0
2018-12-02T04:04:34.262Z,0
2018-12-02T04:05:14.624Z,0
2018-12-02T04:05:55.003Z,0
2018-12-02T04:06:35.409Z,0
2018-12-02T04:07:15.869Z,0
2018-12-02T04:07:56.419Z,0
2018-12-02T04:08:36.849Z,0
2018-12-02T04:09:17.258Z,0
2018-12-02T04:09:57.589Z,0
2018-12-02T04:10:38.030Z,0
2018-12-02T04:11:18.422Z,0
2018-12-02T04:11:58.934Z,0
2018-12-02T04:12:39.805Z,0
2018-12-02T04:13:20.116Z,0
2018-12-02T04:14:00.542Z,0
2018-12-02T04:14:40.921Z,0
2018-12-02T04:15:21.375Z,0
2018-12-02T04:16:01.821Z,0
2018-12-02T04:16:42.174Z,0
2018-12-02T04:17:22.477Z,0
2018-12-02T04:18:02.914Z,0
2018-12-02T04:18:43.329Z,0
2018-12-02T04:19:23.753Z,0
2018-12-02T04:20:04.101Z,0
2018-12-02T04:20:44.519Z,0
2018-12-02T04:21:24.961Z,0
2018-12-02T04:22:05.355Z,0
2018-12-02T04:22:45.813Z,0
2018-12-02T04:23:26.256Z,0
2018-12-02T04:24:06.639Z,0
2018-12-02T04:24:47.040Z,0
2018-12-02T04:27:01.667Z,0
2018-12-02T05:12:44.696Z,0
2018-12-02T05:13:26.262Z,0
2018-12-02T05:14:06.426Z,0
2018-12-02T05:14:46.904Z,0
2018-12-02T05:15:27.189Z,0
2018-12-02T05:16:07.768Z,0
2018-12-02T05:16:48.051Z,0
2018-12-02T05:17:28.467Z,0
2018-12-02T05:18:08.884Z,0
2018-12-02T05:18:49.287Z,0
2018-12-02T05:19:29.663Z,0
2018-12-02T05:20:10.162Z,0
2018-12-02T05:20:50.601Z,0
2018-12-02T05:21:30.912Z,0
2018-12-02T05:22:11.280Z,0
2018-12-02T05:22:51.668Z,0
2018-12-02T05:23:32.486Z,0
2018-12-02T05:24:12.705Z,0
2018-12-02T05:24:53.712Z,0
2018-12-02T05:25:33.933Z,0
2018-12-02T05:26:14.294Z,0
2018-12-02T05:26:54.681Z,0
2018-12-02T05:27:35.148Z,0
2018-12-02T05:28:15.640Z,0
2018-12-02T05:28:56.030Z,0
2018-12-02T05:31:24.512Z,0
2018-12-02T05:32:04.893Z,0
2018-12-02T05:32:45.499Z,0
2018-12-02T05:33:26.014Z,0
2018-12-02T05:34:06.320Z,0
2018-12-02T05:34:46.730Z,0
2018-12-02T05:35:27.084Z,0
2018-12-02T05:36:07.496Z,0
2018-12-02T05:36:47.937Z,0
2018-12-02T05:37:28.627Z,0
2018-12-02T05:38:09.031Z,0
2018-12-02T05:38:49.448Z,0
2018-12-02T05:39:29.792Z,0
2018-12-02T05:40:10.567Z,0
2018-12-02T05:40:50.729Z,0
2018-12-02T05:41:31.111Z,0
2018-12-02T05:42:11.483Z,0
2018-12-02T05:42:52.011Z,0
2018-12-02T05:43:32.436Z,0
2018-12-02T05:44:12.830Z,0
2018-12-02T05:44:53.410Z,0
2018-12-02T05:45:33.830Z,0
2018-12-02T05:46:14.317Z,0
2018-12-02T05:46:54.955Z,0
2018-12-02T05:47:35.102Z,0
2018-12-02T05:48:15.498Z,0
2018-12-02T05:48:55.945Z,0
2018-12-02T05:49:36.493Z,0
2018-12-02T05:50:17.118Z,0
2018-12-02T05:50:57.434Z,0
2018-12-02T05:51:37.762Z,0
2018-12-02T05:52:18.305Z,0
2018-12-02T05:52:58.773Z,0
2018-12-02T05:53:39.227Z,0
2018-12-02T05:54:19.573Z,0
2018-12-02T05:55:00.086Z,0
2018-12-02T05:55:40.589Z,0
2018-12-02T05:56:21.137Z,0
2018-12-02T05:57:01.560Z,0
2018-12-02T05:57:41.884Z,0
2018-12-02T05:58:22.246Z,0
2018-12-02T05:59:02.663Z,0
2018-12-02T05:59:43.126Z,0
2018-12-02T06:00:23.481Z,0
2018-12-02T06:01:03.926Z,0
2018-12-02T06:01:44.369Z,0
2018-12-02T06:02:24.917Z,0
2018-12-02T06:03:05.291Z,0
2018-12-02T06:03:46.375Z,0
2018-12-02T06:04:26.250Z,0
2018-12-02T06:05:06.799Z,0
2018-12-02T06:05:47.133Z,0
2018-12-02T06:06:27.616Z,0
2018-12-02T06:07:08.242Z,0
2018-12-02T06:07:48.414Z,0
2018-12-02T06:08:29.013Z,0
2018-12-02T06:09:09.512Z,0
2018-12-02T06:09:50.001Z,0
2018-12-02T06:10:30.429Z,0
2018-12-02T06:11:10.823Z,0
2018-12-02T06:11:51.204Z,0
2018-12-02T06:12:31.706Z,0
2018-12-02T06:13:12.080Z,0
2018-12-02T06:13:52.548Z,0
2018-12-02T06:14:33.005Z,0
2018-12-02T06:15:13.628Z,0
2018-12-02T06:15:54.151Z,0
2018-12-02T06:16:34.355Z,0
2018-12-02T06:17:15.183Z,0
2018-12-02T06:17:55.309Z,0
2018-12-02T06:18:36.007Z,0
2018-12-02T06:19:16.406Z,0
2018-12-02T06:19:56.794Z,0
2018-12-02T06:20:37.223Z,0
2018-12-02T06:21:17.924Z,0
2018-12-02T06:21:58.136Z,0
2018-12-02T06:22:38.626Z,0
2018-12-02T06:23:19.020Z,0
2018-12-02T06:23:59.368Z,0
2018-12-02T06:26:06.365Z,0
2018-12-02T06:26:53.820Z,0
2018-12-02T06:27:33.293Z,0
2018-12-02T06:28:13.712Z,0
2018-12-02T06:28:54.033Z,0
2018-12-02T06:31:20.798Z,0
2018-12-02T06:32:12.946Z,0
2018-12-02T06:33:04.992Z,0
2018-12-02T06:33:58.840Z,0
2018-12-02T06:34:50.929Z,0
2018-12-02T06:35:43.150Z,0
2018-12-02T06:36:35.589Z,0
2018-12-02T06:37:27.906Z,0
2018-12-02T06:38:20.106Z,0
2018-12-02T06:39:12.704Z,0
2018-12-02T06:40:04.611Z,0
2018-12-02T06:40:56.973Z,0
2018-12-02T06:41:50.855Z,0
2018-12-02T06:42:43.209Z,0
2018-12-02T06:43:35.702Z,0
2018-12-02T06:44:27.742Z,0
2018-12-02T06:45:20.288Z,0
2018-12-02T06:46:12.473Z,0
2018-12-02T06:47:04.152Z,0
2018-12-02T06:47:56.187Z,0
2018-12-02T06:48:48.815Z,0
2018-12-02T06:49:40.809Z,0
2018-12-02T06:50:33.135Z,0
2018-12-02T06:51:25.265Z,0
2018-12-02T06:52:17.742Z,0
2018-12-02T06:53:10.111Z,0
2018-12-02T06:54:02.539Z,0
2018-12-02T06:54:54.887Z,0
2018-12-02T06:55:47.125Z,0
2018-12-02T06:56:39.712Z,0
2018-12-02T06:57:32.209Z,0
2018-12-02T06:58:24.736Z,0
2018-12-02T06:59:17.044Z,0
2018-12-02T07:00:09.582Z,0
2018-12-02T07:01:02.505Z,0
2018-12-02T07:01:56.138Z,0
2018-12-02T07:02:49.380Z,0
2018-12-02T07:03:42.786Z,0
2018-12-02T07:04:35.413Z,0
2018-12-02T07:05:27.568Z,0
2018-12-02T07:06:20.714Z,0
2018-12-02T07:07:14.587Z,4
2018-12-02T07:08:07.232Z,4
2018-12-02T07:09:00.122Z,4
2018-12-02T07:09:52.601Z,4
2018-12-02T07:11:05.698Z,4
2018-12-02T07:12:00.747Z,4
2018-12-02T07:12:53.679Z,4
2018-12-02T07:15:20.488Z,4
2018-12-02T07:16:00.552Z,4
2018-12-02T07:16:40.934Z,4
2018-12-02T07:17:21.305Z,4
2018-12-02T07:18:01.699Z,4
2018-12-02T07:18:42.162Z,4
2018-12-02T07:19:22.533Z,4
2018-12-02T07:20:03.676Z,4
2018-12-02T07:20:44.611Z,4
2018-12-02T07:21:24.451Z,4
2018-12-02T07:22:04.851Z,4
2018-12-02T07:22:45.229Z,4
2018-12-02T07:23:25.596Z,4
2018-12-02T07:24:06.032Z,8
2018-12-02T07:24:46.395Z,4
2018-12-02T07:25:26.817Z,8
2018-12-02T07:26:07.367Z,8
2018-12-02T07:26:47.792Z,8
2018-12-02T07:27:28.367Z,8
2018-12-02T07:28:08.600Z,12
2018-12-02T07:28:49.039Z,12
2018-12-02T07:33:20.140Z,28
2018-12-02T07:34:00.572Z,24
2018-12-02T07:34:40.925Z,28
2018-12-02T07:37:21.587Z,36
2018-12-02T07:38:20.100Z,44
2018-12-02T07:39:13.571Z,52
2018-12-02T07:40:06.216Z,60
2018-12-02T07:40:58.297Z,60
2018-12-02T07:41:55.778Z,68
2018-12-02T07:42:48.759Z,76
2018-12-02T07:43:42.083Z,72
2018-12-02T07:44:34.925Z,68
2018-12-02T07:45:27.765Z,72
2018-12-02T07:46:19.765Z,68
2018-12-02T07:47:12.055Z,72
2018-12-02T07:48:05.137Z,80
2018-12-02T07:48:59.573Z,104
2018-12-02T07:49:53.419Z,116
2018-12-02T07:50:45.859Z,116
2018-12-02T07:51:39.882Z,104
2018-12-02T07:52:23.169Z,108
2018-12-02T07:53:03.861Z,108
2018-12-02T07:53:44.154Z,108
2018-12-02T07:54:24.619Z,100
2018-12-02T07:55:08.043Z,84
2018-12-02T07:55:48.373Z,84
2018-12-02T07:56:28.796Z,80
2018-12-02T07:57:09.686Z,80
2018-12-02T07:57:50.163Z,80
2018-12-02T07:58:30.796Z,88
2018-12-02T07:59:11.556Z,92
2018-12-02T07:59:51.941Z,96
2018-12-02T08:00:32.372Z,88
2018-12-02T08:01:12.797Z,80
2018-12-02T08:01:53.150Z,76
2018-12-02T08:02:33.801Z,76
2018-12-02T08:03:14.213Z,72
2018-12-02T08:03:54.931Z,72
2018-12-02T08:04:35.077Z,76
2018-12-02T08:05:16.380Z,80
2018-12-02T08:05:56.747Z,84
2018-12-02T08:06:37.480Z,84
2018-12-02T08:07:21.320Z,84
2018-12-02T08:08:02.421Z,88
2018-12-02T08:08:42.808Z,96
2018-12-02T08:09:23.265Z,104
2018-12-02T08:10:04.443Z,112
2018-12-02T08:10:44.842Z,120
2018-12-02T08:11:26.743Z,136
2018-12-02T08:12:07.067Z,152
2018-12-02T08:12:47.503Z,152
2018-12-02T08:13:27.961Z,136
2018-12-02T08:14:09.414Z,132
2018-12-02T08:14:49.871Z,128
2018-12-02T08:15:30.480Z,128
2018-12-02T08:16:10.817Z,124
2018-12-02T08:16:51.933Z,120
2018-12-02T08:17:32.578Z,116
2018-12-02T08:18:13.893Z,112
2018-12-02T08:18:54.042Z,112
2018-12-02T08:19:34.988Z,100
2018-12-02T08:20:15.352Z,100
2018-12-02T08:20:55.741Z,92
2018-12-02T08:21:36.465Z,84
2018-12-02T08:22:19.163Z,84
2018-12-02T08:22:59.525Z,76
2018-12-02T08:23:41.675Z,76
2018-12-02T08:24:22.087Z,80
2018-12-02T08:25:03.051Z,88
2018-12-02T08:25:50.936Z,96
2018-12-02T08:26:32.754Z,96
2018-12-02T08:27:14.390Z,92
2018-12-02T08:27:55.085Z,96
2018-12-02T08:28:35.123Z,92
2018-12-02T08:29:15.529Z,92
2018-12-02T08:29:56.103Z,92
2018-12-02T08:30:38.364Z,96
2018-12-02T08:31:20.576Z,96
2018-12-02T08:32:00.891Z,104
2018-12-02T08:32:42.007Z,104
2018-12-02T08:33:22.604Z,100
2018-12-02T08:34:03.045Z,96
2018-12-02T08:34:43.417Z,92
2018-12-02T08:35:24.517Z,92
2018-12-02T08:36:10.908Z,84
2018-12-02T08:36:51.985Z,80
2018-12-02T08:37:33.462Z,84
2018-12-02T08:38:12.943Z,88
2018-12-02T08:38:57.065Z,84
2018-12-02T08:39:40.027Z,84
2018-12-02T08:40:20.109Z,84
2018-12-02T08:41:00.629Z,84
2018-12-02T08:41:41.625Z,88
2018-12-02T08:42:22.280Z,104
2018-12-02T08:43:02.602Z,116
2018-12-02T08:43:44.693Z,132
2018-12-02T08:44:26.218Z,128
2018-12-02T08:45:07.431Z,140
2018-12-02T08:45:47.843Z,160
2018-12-02T08:46:29.077Z,176
2018-12-02T08:47:09.443Z,192
2018-12-02T08:47:50.072Z,208
2018-12-02T08:48:30.564Z,212
2018-12-02T08:49:11.148Z,208
2018-12-02T08:49:51.591Z,192
2018-12-02T08:50:31.964Z,172
2018-12-02T08:51:12.574Z,152
2018-12-02T08:51:53.710Z,148
2018-12-02T08:52:35.897Z,176
2018-12-02T08:53:16.261Z,184
2018-12-02T08:53:56.671Z,180
2018-12-02T08:54:37.580Z,172
2018-12-02T08:55:20.773Z,160
2018-12-02T08:56:02.079Z,172
2018-12-02T08:56:43.448Z,164
2018-12-02T08:57:24.378Z,172
2018-12-02T08:58:04.862Z,172
2018-12-02T08:58:50.146Z,168
2018-12-02T08:59:32.020Z,156
2018-12-02T09:00:12.545Z,160
2018-12-02T09:00:55.000Z,168
2018-12-02T09:01:35.313Z,172
2018-12-02T09:02:15.695Z,172
2018-12-02T09:02:56.177Z,172
2018-12-02T09:03:39.369Z,172
2018-12-02T09:04:21.414Z,180
2018-12-02T09:05:01.847Z,188
2018-12-02T09:05:42.908Z,196
2018-12-02T09:06:24.874Z,212
2018-12-02T09:07:05.284Z,224
2018-12-02T09:07:45.791Z,240
2018-12-02T09:08:26.175Z,248
2018-12-02T09:09:06.455Z,252
2018-12-02T09:09:46.850Z,240
2018-12-02T09:10:28.102Z,224
2018-12-02T09:11:08.506Z,220
2018-12-02T09:11:49.921Z,208
2018-12-02T09:12:30.418Z,200
2018-12-02T09:13:11.932Z,204
2018-12-02T09:13:52.319Z,208
2018-12-02T09:14:33.763Z,204
2018-12-02T09:15:15.124Z,196
2018-12-02T09:15:54.775Z,208
2018-12-02T09:16:35.242Z,224
2018-12-02T09:17:17.125Z,256
2018-12-02T09:19:26.909Z,300
2018-12-02T09:20:20.761Z,288
2018-12-02T09:21:09.655Z,272
2018-12-02T09:21:50.931Z,280
2018-12-02T09:22:31.377Z,288
2018-12-02T09:23:13.059Z,288
2018-12-02T09:23:52.102Z,272
2018-12-02T09:24:32.532Z,260
2018-12-02T09:25:12.982Z,276
2018-12-02T09:25:53.430Z,292
2018-12-02T09:26:33.773Z,332
2018-12-02T09:27:15.789Z,380
2018-12-02T09:27:56.149Z,408
2018-12-02T09:28:36.647Z,428
2018-12-02T09:29:17.021Z,452
2018-12-02T09:29:57.414Z,464
2018-12-02T09:30:38.363Z,504
2018-12-02T09:31:19.183Z,532
2018-12-02T09:33:37.305Z,528
2018-12-02T09:34:17.524Z,548
2018-12-02T09:34:57.961Z,536
2018-12-02T09:37:28.777Z,348
2018-12-02T09:38:24.568Z,304
2018-12-02T09:39:18.538Z,284
2018-12-02T09:41:35.037Z,300
2018-12-02T09:42:15.474Z,364
2018-12-02T09:42:55.841Z,392
2018-12-02T09:43:36.231Z,356
2018-12-02T09:44:16.930Z,364
2018-12-02T09:44:57.233Z,348
2018-12-02T09:45:37.652Z,304
2018-12-02T09:46:18.022Z,248
2018-12-02T09:46:58.448Z,220
2018-12-02T09:47:38.840Z,224
2018-12-02T09:48:19.261Z,260
2018-12-02T09:48:59.798Z,264
2018-12-02T09:49:40.270Z,276
2018-12-02T09:53:45.119Z,352
2018-12-02T09:54:37.163Z,392
2018-12-02T09:55:27.614Z,396
2018-12-02T09:57:39.664Z,324
2018-12-02T09:58:32.129Z,272
2018-12-02T09:59:24.507Z,292
2018-12-02T10:00:17.067Z,276
2018-12-02T10:01:10.602Z,284
2018-12-02T10:02:03.304Z,272
2018-12-02T10:02:56.187Z,248
2018-12-02T10:03:48.657Z,216
2018-12-02T10:04:40.409Z,216
2018-12-02T10:05:32.370Z,188
2018-12-02T10:06:24.449Z,204
2018-12-02T10:07:16.873Z,208
2018-12-02T10:09:49.967Z,272
2018-12-02T10:10:43.779Z,336
2018-12-02T10:11:36.595Z,352
2018-12-02T10:12:28.470Z,324
2018-12-02T10:13:21.100Z,344
2018-12-02T10:14:13.563Z,312
2018-12-02T10:15:06.526Z,340
2018-12-02T10:15:59.013Z,312
2018-12-02T10:16:51.341Z,312
2018-12-02T10:17:43.646Z,356
2018-12-02T10:18:35.494Z,352
2018-12-02T10:19:28.069Z,316
2018-12-02T10:20:20.530Z,332
2018-12-02T10:21:12.244Z,384
2018-12-02T10:22:02.434Z,356
2018-12-02T10:22:42.284Z,332
2018-12-02T10:23:22.640Z,360
2018-12-02T10:24:02.951Z,372
2018-12-02T10:24:43.376Z,320
2018-12-02T10:25:23.820Z,324
2018-12-02T10:26:04.218Z,348
2018-12-02T10:26:44.595Z,344
2018-12-02T10:27:25.009Z,336
2018-12-02T10:28:05.312Z,304
2018-12-02T10:28:45.848Z,260
2018-12-02T10:29:26.204Z,248
2018-12-02T11:07:04.828Z,660
2018-12-02T11:07:45.185Z,852
2018-12-02T11:08:25.490Z,1068
2018-12-02T11:10:55.777Z,904
2018-12-02T11:11:36.620Z,896
2018-12-02T11:12:17.084Z,768
2018-12-02T11:12:57.417Z,724
2018-12-02T11:13:37.958Z,896
2018-12-02T11:14:18.514Z,860
2018-12-02T11:14:58.954Z,720
2018-12-02T11:15:39.355Z,676
2018-12-02T11:16:19.866Z,652
2018-12-02T11:17:00.326Z,636
2018-12-02T11:17:40.709Z,664
2018-12-02T11:18:21.119Z,664
2018-12-02T11:19:01.475Z,800
2018-12-02T11:19:41.897Z,808
2018-12-02T11:20:22.425Z,776
2018-12-02T11:21:03.000Z,980
2018-12-02T11:21:43.398Z,1028
2018-12-02T11:22:23.837Z,836
2018-12-02T11:23:04.291Z,768
2018-12-02T11:23:44.720Z,660
2018-12-02T11:24:25.307Z,716
2018-12-02T11:25:05.596Z,696
2018-12-02T11:25:46.010Z,740
2018-12-02T11:26:26.462Z,800
2018-12-02T11:27:06.838Z,860
2018-12-02T11:27:47.249Z,856
2018-12-02T11:28:27.728Z,744
2018-12-02T11:29:08.182Z,688
2018-12-02T11:29:48.508Z,712
2018-12-02T11:30:29.074Z,740
2018-12-02T11:31:09.514Z,772
2018-12-02T11:31:49.969Z,776
2018-12-02T11:32:30.356Z,776
2018-12-02T11:33:10.821Z,808
2018-12-02T11:33:51.234Z,832
2018-12-02T11:34:31.821Z,844
2018-12-02T11:35:12.354Z,844
2018-12-02T11:35:52.791Z,860
2018-12-02T11:36:33.261Z,868
2018-12-02T11:37:13.615Z,832
2018-12-02T11:37:54.131Z,800
2018-12-02T11:38:34.526Z,792
2018-12-02T11:39:14.958Z,760
2018-12-02T11:39:55.403Z,704
2018-12-02T11:40:35.921Z,692
2018-12-02T11:41:17.327Z,740
2018-12-02T11:41:56.670Z,704
2018-12-02T11:42:37.099Z,684
2018-12-02T11:43:17.514Z,676
2018-12-02T11:43:58.059Z,736
2018-12-02T11:44:38.501Z,772
2018-12-02T11:45:19.468Z,796
2018-12-02T11:45:59.756Z,832
2018-12-02T11:46:40.129Z,852
2018-12-02T11:49:20.503Z,1008
2018-12-02T11:50:13.824Z,780
2018-12-02T11:51:06.820Z,732
2018-12-02T11:51:59.547Z,648
2018-12-02T11:52:51.990Z,644
2018-12-02T11:53:44.450Z,672
2018-12-02T11:54:36.722Z,680
2018-12-02T11:55:28.324Z,628
2018-12-02T11:56:12.126Z,596
2018-12-02T11:56:53.005Z,556
2018-12-02T11:57:33.906Z,500
2018-12-02T11:58:14.874Z,448
2018-12-02T11:58:55.346Z,504
2018-12-02T11:59:36.667Z,560
2018-12-02T12:00:17.121Z,572
2018-12-02T12:00:57.511Z,540
2018-12-02T12:01:38.611Z,528
2018-12-02T12:02:18.970Z,500
2018-12-02T12:02:59.977Z,496
2018-12-02T12:03:40.393Z,448
2018-12-02T12:04:20.759Z,464
2018-12-02T12:05:01.198Z,428
2018-12-02T12:05:41.766Z,496
2018-12-02T12:06:22.059Z,480
2018-12-02T12:07:02.488Z,540
2018-12-02T12:07:42.975Z,608
2018-12-02T12:08:23.354Z,640
2018-12-02T12:09:04.761Z,660
2018-12-02T12:09:45.247Z,652
2018-12-02T12:10:26.328Z,648
2018-12-02T12:11:07.315Z,592
2018-12-02T12:11:49.450Z,536